sensor_id;sensor_type;location;lat;lon;timestamp;pressure;altitude;pressure_sealevel;temperature;humidity
5550;BME280;2798;42.716;23.256;2023-07-13T00:01:16;94980.03;;;25.98;57.34
5550;BME280;2798;42.716;23.256;2023-07-13T00:03:41;94986.91;;;25.99;56.96
5550;BME280;2798;42.716;23.256;2023-07-13T00:06:07;94985.06;;;25.92;58.81
5550;BME280;2798;42.716;23.256;2023-07-13T00:08:33;94976.16;;;25.80;58.30
5550;BME280;2798;42.716;23.256;2023-07-13T00:11:02;94979.41;;;25.96;58.15
5550;BME280;2798;42.716;23.256;2023-07-13T00:13:29;94964.41;;;25.83;58.47
5550;BME280;2798;42.716;23.256;2023-07-13T00:15:57;94983.44;;;25.85;58.29
5550;BME280;2798;42.716;23.256;2023-07-13T00:18:23;94981.44;;;25.80;58.02
5550;BME280;2798;42.716;23.256;2023-07-13T00:20:48;94981.63;;;25.72;56.98
5550;BME280;2798;42.716;23.256;2023-07-13T00:23:14;94970.88;;;25.73;56.85
5550;BME280;2798;42.716;23.256;2023-07-13T00:25:39;94957.22;;;25.49;56.78
5550;BME280;2798;42.716;23.256;2023-07-13T00:28:05;94973.63;;;25.45;58.06
5550;BME280;2798;42.716;23.256;2023-07-13T00:30:31;94970.38;;;25.36;59.88
5550;BME280;2798;42.716;23.256;2023-07-13T00:32:56;94950.84;;;25.10;60.53
5550;BME280;2798;42.716;23.256;2023-07-13T00:35:21;94969.09;;;25.18;61.33
5550;BME280;2798;42.716;23.256;2023-07-13T00:37:47;94970.09;;;25.17;61.29
5550;BME280;2798;42.716;23.256;2023-07-13T00:40:13;94976.00;;;25.26;61.40
5550;BME280;2798;42.716;23.256;2023-07-13T00:42:40;94970.06;;;25.10;62.49
5550;BME280;2798;42.716;23.256;2023-07-13T00:47:32;94977.41;;;25.15;62.29
5550;BME280;2798;42.716;23.256;2023-07-13T00:49:58;94965.03;;;25.15;62.75
5550;BME280;2798;42.716;23.256;2023-07-13T00:52:23;94965.66;;;25.17;62.55
5550;BME280;2798;42.716;23.256;2023-07-13T00:54:49;94972.13;;;25.22;62.63
5550;BME280;2798;42.716;23.256;2023-07-13T00:57:17;94963.84;;;25.18;62.86
5550;BME280;2798;42.716;23.256;2023-07-13T00:59:48;94959.13;;;25.06;63.47
5550;BME280;2798;42.716;23.256;2023-07-13T01:02:15;94963.78;;;25.04;63.88
5550;BME280;2798;42.716;23.256;2023-07-13T01:04:41;94965.78;;;25.02;64.17
5550;BME280;2798;42.716;23.256;2023-07-13T01:07:09;94956.28;;;25.01;64.17
5550;BME280;2798;42.716;23.256;2023-07-13T01:09:36;94963.38;;;25.08;64.36
5550;BME280;2798;42.716;23.256;2023-07-13T01:12:02;94925.94;;;24.70;65.50
5550;BME280;2798;42.716;23.256;2023-07-13T01:14:28;94971.19;;;24.87;65.52
5550;BME280;2798;42.716;23.256;2023-07-13T01:16:54;94966.69;;;24.81;66.32
5550;BME280;2798;42.716;23.256;2023-07-13T01:21:50;94957.00;;;24.88;65.84
5550;BME280;2798;42.716;23.256;2023-07-13T01:24:15;94951.31;;;24.85;64.81
5550;BME280;2798;42.716;23.256;2023-07-13T01:26:41;94964.22;;;24.73;65.70
5550;BME280;2798;42.716;23.256;2023-07-13T01:29:06;94945.78;;;24.73;65.34
5550;BME280;2798;42.716;23.256;2023-07-13T01:31:32;94954.09;;;24.69;65.32
5550;BME280;2798;42.716;23.256;2023-07-13T01:33:58;94952.00;;;24.58;66.09
5550;BME280;2798;42.716;23.256;2023-07-13T01:36:23;94952.78;;;24.52;66.54
5550;BME280;2798;42.716;23.256;2023-07-13T01:38:49;94936.75;;;24.47;66.32
5550;BME280;2798;42.716;23.256;2023-07-13T01:41:14;94945.28;;;24.49;66.03
5550;BME280;2798;42.716;23.256;2023-07-13T01:43:40;94942.25;;;24.52;66.92
5550;BME280;2798;42.716;23.256;2023-07-13T01:46:05;94950.75;;;24.54;65.69
5550;BME280;2798;42.716;23.256;2023-07-13T01:48:30;94928.19;;;24.38;65.99
5550;BME280;2798;42.716;23.256;2023-07-13T01:50:56;94946.06;;;24.49;65.66
5550;BME280;2798;42.716;23.256;2023-07-13T01:53:21;94948.84;;;24.41;65.83
5550;BME280;2798;42.716;23.256;2023-07-13T01:55:47;94948.28;;;24.46;66.41
5550;BME280;2798;42.716;23.256;2023-07-13T01:58:12;94946.56;;;24.31;66.43
5550;BME280;2798;42.716;23.256;2023-07-13T02:00:38;94947.41;;;24.38;66.44
5550;BME280;2798;42.716;23.256;2023-07-13T02:03:03;94958.31;;;24.35;66.09
5550;BME280;2798;42.716;23.256;2023-07-13T02:05:29;94955.00;;;24.19;66.88
5550;BME280;2798;42.716;23.256;2023-07-13T02:07:54;94955.19;;;24.18;67.00
5550;BME280;2798;42.716;23.256;2023-07-13T02:10:20;94954.91;;;24.13;67.00
5550;BME280;2798;42.716;23.256;2023-07-13T02:12:45;94966.88;;;24.15;67.13
5550;BME280;2798;42.716;23.256;2023-07-13T02:15:10;94952.28;;;24.13;66.73
5550;BME280;2798;42.716;23.256;2023-07-13T02:17:36;94954.66;;;24.07;66.90
5550;BME280;2798;42.716;23.256;2023-07-13T02:20:03;94959.47;;;24.04;67.31
5550;BME280;2798;42.716;23.256;2023-07-13T02:22:30;94956.00;;;23.97;67.24
5550;BME280;2798;42.716;23.256;2023-07-13T02:24:55;94959.97;;;23.92;67.57
5550;BME280;2798;42.716;23.256;2023-07-13T02:27:20;94963.44;;;23.93;67.47
5550;BME280;2798;42.716;23.256;2023-07-13T02:29:46;94967.47;;;23.89;67.48
5550;BME280;2798;42.716;23.256;2023-07-13T02:32:11;94967.00;;;23.85;67.72
5550;BME280;2798;42.716;23.256;2023-07-13T02:34:37;94965.97;;;23.79;68.10
5550;BME280;2798;42.716;23.256;2023-07-13T02:37:02;94968.41;;;23.81;68.64
5550;BME280;2798;42.716;23.256;2023-07-13T02:39:28;94966.34;;;23.76;68.45
5550;BME280;2798;42.716;23.256;2023-07-13T02:41:53;94962.63;;;23.70;68.83
5550;BME280;2798;42.716;23.256;2023-07-13T02:44:18;94971.09;;;23.66;69.69
5550;BME280;2798;42.716;23.256;2023-07-13T02:46:44;94972.66;;;23.60;70.36
5550;BME280;2798;42.716;23.256;2023-07-13T02:49:10;94968.94;;;23.54;70.24
5550;BME280;2798;42.716;23.256;2023-07-13T02:51:35;94967.63;;;23.65;69.40
5550;BME280;2798;42.716;23.256;2023-07-13T02:54:02;94951.28;;;23.63;69.45
5550;BME280;2798;42.716;23.256;2023-07-13T02:56:29;94970.03;;;23.60;70.97
5550;BME280;2798;42.716;23.256;2023-07-13T02:58:55;94988.28;;;23.68;70.07
5550;BME280;2798;42.716;23.256;2023-07-13T03:01:21;94938.25;;;23.55;70.17
5550;BME280;2798;42.716;23.256;2023-07-13T03:03:48;94969.09;;;23.68;70.53
5550;BME280;2798;42.716;23.256;2023-07-13T03:06:15;94976.78;;;23.69;69.56
5550;BME280;2798;42.716;23.256;2023-07-13T03:08:42;94976.53;;;23.64;70.24
5550;BME280;2798;42.716;23.256;2023-07-13T03:11:13;94980.84;;;23.72;70.70
5550;BME280;2798;42.716;23.256;2023-07-13T03:13:40;94975.03;;;23.77;70.17
5550;BME280;2798;42.716;23.256;2023-07-13T03:16:07;94980.84;;;23.72;70.23
5550;BME280;2798;42.716;23.256;2023-07-13T03:18:32;94972.78;;;23.74;70.27
5550;BME280;2798;42.716;23.256;2023-07-13T03:20:58;94964.81;;;23.67;70.67
5550;BME280;2798;42.716;23.256;2023-07-13T03:23:23;94974.44;;;23.81;70.13
5550;BME280;2798;42.716;23.256;2023-07-13T03:25:50;94973.88;;;23.86;69.84
5550;BME280;2798;42.716;23.256;2023-07-13T03:28:15;94981.72;;;23.79;69.24
5550;BME280;2798;42.716;23.256;2023-07-13T03:30:41;94986.09;;;23.72;69.85
5550;BME280;2798;42.716;23.256;2023-07-13T03:33:07;94981.22;;;23.69;70.16
5550;BME280;2798;42.716;23.256;2023-07-13T03:35:34;94987.47;;;23.68;70.35
5550;BME280;2798;42.716;23.256;2023-07-13T03:37:59;94983.22;;;23.67;70.30
5550;BME280;2798;42.716;23.256;2023-07-13T03:40:26;94985.03;;;23.66;70.69
5550;BME280;2798;42.716;23.256;2023-07-13T03:42:52;94989.84;;;23.63;70.28
5550;BME280;2798;42.716;23.256;2023-07-13T03:45:17;94989.94;;;23.69;70.54
5550;BME280;2798;42.716;23.256;2023-07-13T03:47:42;94983.03;;;23.68;70.24
5550;BME280;2798;42.716;23.256;2023-07-13T03:50:08;94987.78;;;23.80;70.25
5550;BME280;2798;42.716;23.256;2023-07-13T03:52:34;94988.53;;;23.74;71.20
5550;BME280;2798;42.716;23.256;2023-07-13T03:54:59;95002.56;;;23.81;70.70
5550;BME280;2798;42.716;23.256;2023-07-13T03:57:25;94985.66;;;23.90;70.45
5550;BME280;2798;42.716;23.256;2023-07-13T03:59:50;94988.09;;;23.92;70.33
5550;BME280;2798;42.716;23.256;2023-07-13T04:02:16;94985.47;;;23.92;70.86
5550;BME280;2798;42.716;23.256;2023-07-13T04:04:42;94982.47;;;23.95;71.21
5550;BME280;2798;42.716;23.256;2023-07-13T04:07:08;94975.44;;;24.02;70.60
5550;BME280;2798;42.716;23.256;2023-07-13T04:09:34;94977.28;;;24.02;70.46
5550;BME280;2798;42.716;23.256;2023-07-13T04:12:00;94968.56;;;24.01;70.19
5550;BME280;2798;42.716;23.256;2023-07-13T04:14:25;94976.69;;;24.06;70.82
5550;BME280;2798;42.716;23.256;2023-07-13T04:16:51;94961.88;;;23.99;70.71
5550;BME280;2798;42.716;23.256;2023-07-13T04:19:16;94979.63;;;24.18;70.21
5550;BME280;2798;42.716;23.256;2023-07-13T04:21:42;94979.31;;;24.06;69.86
5550;BME280;2798;42.716;23.256;2023-07-13T04:24:07;94999.91;;;24.25;70.35
5550;BME280;2798;42.716;23.256;2023-07-13T04:26:33;94993.34;;;24.36;69.46
5550;BME280;2798;42.716;23.256;2023-07-13T04:29:01;94997.19;;;24.40;69.60
5550;BME280;2798;42.716;23.256;2023-07-13T04:31:29;95004.91;;;24.41;69.04
5550;BME280;2798;42.716;23.256;2023-07-13T04:33:54;94985.25;;;24.37;69.08
5550;BME280;2798;42.716;23.256;2023-07-13T04:36:20;95010.44;;;24.53;69.14
5550;BME280;2798;42.716;23.256;2023-07-13T04:38:45;95007.63;;;24.55;68.79
5550;BME280;2798;42.716;23.256;2023-07-13T04:41:11;95015.00;;;24.66;68.72
5550;BME280;2798;42.716;23.256;2023-07-13T04:43:36;94986.97;;;24.52;68.61
5550;BME280;2798;42.716;23.256;2023-07-13T04:46:10;95013.41;;;24.72;69.14
5550;BME280;2798;42.716;23.256;2023-07-13T04:48:36;95015.00;;;24.73;67.42
5550;BME280;2798;42.716;23.256;2023-07-13T04:51:03;95010.31;;;24.68;68.72
5550;BME280;2798;42.716;23.256;2023-07-13T04:53:29;95007.53;;;24.77;67.52
5550;BME280;2798;42.716;23.256;2023-07-13T04:55:55;95035.78;;;24.90;68.22
5550;BME280;2798;42.716;23.256;2023-07-13T04:58:22;95006.13;;;24.74;67.69
5550;BME280;2798;42.716;23.256;2023-07-13T05:00:48;95022.63;;;24.90;66.93
5550;BME280;2798;42.716;23.256;2023-07-13T05:03:13;95028.16;;;24.73;67.66
5550;BME280;2798;42.716;23.256;2023-07-13T05:05:39;95009.25;;;24.56;68.16
5550;BME280;2798;42.716;23.256;2023-07-13T05:08:04;95023.16;;;24.78;68.68
5550;BME280;2798;42.716;23.256;2023-07-13T05:10:30;95036.34;;;24.85;67.69
5550;BME280;2798;42.716;23.256;2023-07-13T05:12:55;95033.34;;;24.88;67.70
5550;BME280;2798;42.716;23.256;2023-07-13T05:15:22;95004.09;;;24.69;67.83
5550;BME280;2798;42.716;23.256;2023-07-13T05:17:48;95025.81;;;24.85;67.33
5550;BME280;2798;42.716;23.256;2023-07-13T05:20:14;94988.69;;;24.73;67.28
5550;BME280;2798;42.716;23.256;2023-07-13T05:22:39;95027.56;;;25.00;67.64
5550;BME280;2798;42.716;23.256;2023-07-13T05:25:06;95031.84;;;25.08;67.36
5550;BME280;2798;42.716;23.256;2023-07-13T05:27:32;95037.34;;;25.13;67.30
5550;BME280;2798;42.716;23.256;2023-07-13T05:29:57;95029.91;;;25.30;66.51
5550;BME280;2798;42.716;23.256;2023-07-13T05:32:23;95038.84;;;25.29;66.27
5550;BME280;2798;42.716;23.256;2023-07-13T05:34:48;95036.81;;;25.38;64.77
5550;BME280;2798;42.716;23.256;2023-07-13T05:37:14;95027.31;;;25.37;65.06
5550;BME280;2798;42.716;23.256;2023-07-13T05:39:39;95013.47;;;25.21;64.76
5550;BME280;2798;42.716;23.256;2023-07-13T05:42:05;95042.31;;;25.43;64.50
5550;BME280;2798;42.716;23.256;2023-07-13T05:44:31;95041.94;;;25.46;64.56
5550;BME280;2798;42.716;23.256;2023-07-13T05:46:56;95022.28;;;25.42;64.90
5550;BME280;2798;42.716;23.256;2023-07-13T05:49:22;95051.97;;;25.64;64.58
5550;BME280;2798;42.716;23.256;2023-07-13T05:51:48;95039.00;;;25.70;64.74
5550;BME280;2798;42.716;23.256;2023-07-13T05:54:13;95015.47;;;25.68;63.71
5550;BME280;2798;42.716;23.256;2023-07-13T05:56:39;95032.94;;;25.89;63.01
5550;BME280;2798;42.716;23.256;2023-07-13T05:59:04;95015.91;;;25.85;63.11
5550;BME280;2798;42.716;23.256;2023-07-13T06:01:30;95034.00;;;26.02;62.17
5550;BME280;2798;42.716;23.256;2023-07-13T06:03:56;95020.81;;;26.15;62.65
5550;BME280;2798;42.716;23.256;2023-07-13T06:06:21;95030.53;;;26.28;63.00
5550;BME280;2798;42.716;23.256;2023-07-13T06:08:47;95013.31;;;26.19;63.52
5550;BME280;2798;42.716;23.256;2023-07-13T06:13:39;95041.13;;;26.42;59.86
5550;BME280;2798;42.716;23.256;2023-07-13T06:16:05;95040.31;;;26.48;60.01
5550;BME280;2798;42.716;23.256;2023-07-13T06:18:34;95038.47;;;26.56;59.33
5550;BME280;2798;42.716;23.256;2023-07-13T06:21:00;95045.97;;;26.59;59.09
5550;BME280;2798;42.716;23.256;2023-07-13T06:23:26;95052.09;;;26.52;59.98
5550;BME280;2798;42.716;23.256;2023-07-13T06:25:52;95055.94;;;26.63;59.46
5550;BME280;2798;42.716;23.256;2023-07-13T06:28:17;95041.53;;;26.59;58.27
5550;BME280;2798;42.716;23.256;2023-07-13T06:30:45;95059.38;;;26.71;58.15
5550;BME280;2798;42.716;23.256;2023-07-13T06:33:11;95036.81;;;26.75;57.79
5550;BME280;2798;42.716;23.256;2023-07-13T06:35:36;95037.84;;;26.81;58.38
5550;BME280;2798;42.716;23.256;2023-07-13T06:38:01;95036.59;;;26.90;58.19
5550;BME280;2798;42.716;23.256;2023-07-13T06:40:27;95034.53;;;26.99;57.77
5550;BME280;2798;42.716;23.256;2023-07-13T06:42:54;95029.69;;;27.02;56.92
5550;BME280;2798;42.716;23.256;2023-07-13T06:45:19;95037.78;;;27.14;55.63
5550;BME280;2798;42.716;23.256;2023-07-13T06:47:44;95032.94;;;27.11;56.12
5550;BME280;2798;42.716;23.256;2023-07-13T06:50:10;95039.38;;;27.29;56.15
5550;BME280;2798;42.716;23.256;2023-07-13T06:52:35;95029.34;;;27.38;56.17
5550;BME280;2798;42.716;23.256;2023-07-13T06:55:01;95019.03;;;27.30;55.00
5550;BME280;2798;42.716;23.256;2023-07-13T06:57:26;95041.53;;;27.46;54.33
5550;BME280;2798;42.716;23.256;2023-07-13T06:59:52;95035.47;;;27.38;54.14
5550;BME280;2798;42.716;23.256;2023-07-13T07:02:18;95041.38;;;27.40;54.07
5550;BME280;2798;42.716;23.256;2023-07-13T07:04:43;95037.47;;;27.43;53.97
5550;BME280;2798;42.716;23.256;2023-07-13T07:07:08;95035.03;;;27.48;52.88
5550;BME280;2798;42.716;23.256;2023-07-13T07:09:34;95046.78;;;27.52;52.75
5550;BME280;2798;42.716;23.256;2023-07-13T07:11:59;95035.56;;;27.57;51.89
5550;BME280;2798;42.716;23.256;2023-07-13T07:14:25;95025.19;;;27.62;52.06
5550;BME280;2798;42.716;23.256;2023-07-13T07:16:50;95023.94;;;27.72;51.76
5550;BME280;2798;42.716;23.256;2023-07-13T07:19:16;95029.59;;;27.82;52.24
5550;BME280;2798;42.716;23.256;2023-07-13T07:21:41;95024.25;;;27.89;52.36
5550;BME280;2798;42.716;23.256;2023-07-13T07:24:07;95025.84;;;27.97;51.99
5550;BME280;2798;42.716;23.256;2023-07-13T07:26:33;95007.56;;;27.88;51.62
5550;BME280;2798;42.716;23.256;2023-07-13T07:28:58;95027.16;;;28.13;52.26
5550;BME280;2798;42.716;23.256;2023-07-13T07:31:24;95015.69;;;28.19;51.86
5550;BME280;2798;42.716;23.256;2023-07-13T07:33:49;95010.38;;;28.26;51.98
5550;BME280;2798;42.716;23.256;2023-07-13T07:36:15;95013.13;;;28.38;51.89
5550;BME280;2798;42.716;23.256;2023-07-13T07:38:41;95003.34;;;28.38;51.47
5550;BME280;2798;42.716;23.256;2023-07-13T07:41:07;95012.19;;;28.51;51.24
5550;BME280;2798;42.716;23.256;2023-07-13T07:43:33;95003.22;;;28.52;51.16
5550;BME280;2798;42.716;23.256;2023-07-13T07:45:58;95013.91;;;28.64;50.52
5550;BME280;2798;42.716;23.256;2023-07-13T07:48:24;94999.63;;;28.65;51.49
5550;BME280;2798;42.716;23.256;2023-07-13T07:50:49;95001.56;;;28.77;51.28
5550;BME280;2798;42.716;23.256;2023-07-13T07:53:15;95005.09;;;28.89;51.28
5550;BME280;2798;42.716;23.256;2023-07-13T07:55:40;95000.56;;;28.96;51.28
5550;BME280;2798;42.716;23.256;2023-07-13T07:58:06;94996.81;;;29.04;51.05
5550;BME280;2798;42.716;23.256;2023-07-13T08:00:32;95003.09;;;29.10;50.83
5550;BME280;2798;42.716;23.256;2023-07-13T08:02:59;94989.50;;;29.18;51.60
5550;BME280;2798;42.716;23.256;2023-07-13T08:05:25;94979.28;;;29.22;50.73
5550;BME280;2798;42.716;23.256;2023-07-13T08:07:50;94987.31;;;29.34;50.53
5550;BME280;2798;42.716;23.256;2023-07-13T08:10:16;94990.44;;;29.43;50.91
5550;BME280;2798;42.716;23.256;2023-07-13T08:12:42;94983.44;;;29.48;51.28
5550;BME280;2798;42.716;23.256;2023-07-13T08:15:11;94974.44;;;29.49;51.48
5550;BME280;2798;42.716;23.256;2023-07-13T08:17:37;94985.47;;;29.65;51.40
5550;BME280;2798;42.716;23.256;2023-07-13T08:22:47;94967.75;;;29.78;51.06
5550;BME280;2798;42.716;23.256;2023-07-13T08:25:13;94980.22;;;29.89;50.92
5550;BME280;2798;42.716;23.256;2023-07-13T08:27:38;94977.56;;;29.89;50.58
5550;BME280;2798;42.716;23.256;2023-07-13T08:30:04;94972.88;;;30.03;50.25
5550;BME280;2798;42.716;23.256;2023-07-13T08:32:30;94976.00;;;30.12;49.43
5550;BME280;2798;42.716;23.256;2023-07-13T08:34:56;94971.50;;;30.13;49.06
5550;BME280;2798;42.716;23.256;2023-07-13T08:37:21;94956.41;;;30.13;48.64
5550;BME280;2798;42.716;23.256;2023-07-13T08:39:47;94959.63;;;30.15;49.11
5550;BME280;2798;42.716;23.256;2023-07-13T08:45:07;94957.81;;;30.28;48.45
5550;BME280;2798;42.716;23.256;2023-07-13T08:47:40;94963.81;;;30.35;49.21
5550;BME280;2798;42.716;23.256;2023-07-13T08:50:12;94962.66;;;30.43;48.77
5550;BME280;2798;42.716;23.256;2023-07-13T08:52:40;94968.44;;;30.52;48.47
5550;BME280;2798;42.716;23.256;2023-07-13T08:55:20;94956.41;;;30.49;48.23
5550;BME280;2798;42.716;23.256;2023-07-13T08:57:59;94979.63;;;30.66;47.89
5550;BME280;2798;42.716;23.256;2023-07-13T09:00:34;94952.16;;;30.48;47.81
5550;BME280;2798;42.716;23.256;2023-07-13T09:03:05;94985.38;;;30.75;47.76
5550;BME280;2798;42.716;23.256;2023-07-13T09:05:40;94962.28;;;30.63;47.75
5550;BME280;2798;42.716;23.256;2023-07-13T09:10:44;94990.81;;;30.92;46.64
5550;BME280;2798;42.716;23.256;2023-07-13T09:13:28;94990.13;;;30.96;46.95
5550;BME280;2798;42.716;23.256;2023-07-13T09:15:59;94981.63;;;31.12;45.61
5550;BME280;2798;42.716;23.256;2023-07-13T09:18:35;94994.91;;;31.24;44.97
5550;BME280;2798;42.716;23.256;2023-07-13T09:21:14;94982.75;;;31.40;45.18
5550;BME280;2798;42.716;23.256;2023-07-13T09:23:41;94989.03;;;31.51;44.71
5550;BME280;2798;42.716;23.256;2023-07-13T09:26:21;94994.63;;;31.66;44.21
5550;BME280;2798;42.716;23.256;2023-07-13T09:29:12;94996.28;;;31.85;43.62
5550;BME280;2798;42.716;23.256;2023-07-13T09:31:47;94994.72;;;32.01;43.92
5550;BME280;2798;42.716;23.256;2023-07-13T09:34:14;94993.84;;;32.12;43.87
5550;BME280;2798;42.716;23.256;2023-07-13T09:36:40;95018.94;;;32.34;43.29
5550;BME280;2798;42.716;23.256;2023-07-13T09:39:31;94987.69;;;32.46;40.11
5550;BME280;2798;42.716;23.256;2023-07-13T09:42:07;94980.75;;;32.62;36.99
5550;BME280;2798;42.716;23.256;2023-07-13T09:47:19;94972.59;;;32.91;34.43
5550;BME280;2798;42.716;23.256;2023-07-13T09:49:45;94961.81;;;33.03;34.36
5550;BME280;2798;42.716;23.256;2023-07-13T09:52:14;94964.94;;;33.17;34.25
5550;BME280;2798;42.716;23.256;2023-07-13T09:54:44;94959.72;;;33.28;33.49
5550;BME280;2798;42.716;23.256;2023-07-13T09:57:15;94954.75;;;33.37;33.42
5550;BME280;2798;42.716;23.256;2023-07-13T09:59:44;94957.81;;;33.51;33.01
5550;BME280;2798;42.716;23.256;2023-07-13T10:04:59;94952.50;;;33.78;33.55
5550;BME280;2798;42.716;23.256;2023-07-13T10:07:25;94898.41;;;33.61;32.52
5550;BME280;2798;42.716;23.256;2023-07-13T10:09:55;94928.53;;;33.89;32.10
5550;BME280;2798;42.716;23.256;2023-07-13T10:12:21;94935.91;;;34.09;31.63
5550;BME280;2798;42.716;23.256;2023-07-13T10:14:51;94951.25;;;34.24;31.84
5550;BME280;2798;42.716;23.256;2023-07-13T10:17:24;94949.69;;;34.28;31.65
5550;BME280;2798;42.716;23.256;2023-07-13T10:19:50;94953.22;;;34.39;31.40
5550;BME280;2798;42.716;23.256;2023-07-13T10:22:27;94952.44;;;34.44;30.99
5550;BME280;2798;42.716;23.256;2023-07-13T10:24:55;94948.25;;;34.59;30.40
5550;BME280;2798;42.716;23.256;2023-07-13T10:27:29;94940.56;;;34.68;30.91
5550;BME280;2798;42.716;23.256;2023-07-13T10:30:15;94945.94;;;34.73;29.70
5550;BME280;2798;42.716;23.256;2023-07-13T10:32:43;94915.16;;;34.65;30.02
5550;BME280;2798;42.716;23.256;2023-07-13T10:35:13;94933.19;;;34.85;29.04
5550;BME280;2798;42.716;23.256;2023-07-13T10:37:48;94939.09;;;34.93;29.29
5550;BME280;2798;42.716;23.256;2023-07-13T10:40:19;94902.16;;;34.79;29.05
5550;BME280;2798;42.716;23.256;2023-07-13T10:42:50;94915.06;;;35.03;28.68
5550;BME280;2798;42.716;23.256;2023-07-13T10:45:20;94920.16;;;35.15;29.34
5550;BME280;2798;42.716;23.256;2023-07-13T10:47:47;94918.09;;;35.22;29.41
5550;BME280;2798;42.716;23.256;2023-07-13T10:50:40;94915.16;;;35.29;27.81
5550;BME280;2798;42.716;23.256;2023-07-13T10:53:20;94906.88;;;35.36;27.33
5550;BME280;2798;42.716;23.256;2023-07-13T10:58:29;94900.75;;;35.56;27.41
5550;BME280;2798;42.716;23.256;2023-07-13T11:03:33;94898.91;;;35.72;28.05
5550;BME280;2798;42.716;23.256;2023-07-13T11:08:51;94890.06;;;35.87;26.63
5550;BME280;2798;42.716;23.256;2023-07-13T11:19:24;94884.16;;;36.01;26.67
5550;BME280;2798;42.716;23.256;2023-07-13T11:24:58;94879.31;;;36.19;26.30
5550;BME280;2798;42.716;23.256;2023-07-13T11:27:45;94872.09;;;36.19;26.16
5550;BME280;2798;42.716;23.256;2023-07-13T11:35:42;94873.63;;;36.46;27.27
5550;BME280;2798;42.716;23.256;2023-07-13T11:38:18;94872.53;;;36.53;26.69
5550;BME280;2798;42.716;23.256;2023-07-13T11:40:47;94852.47;;;36.45;26.60
5550;BME280;2798;42.716;23.256;2023-07-13T11:43:14;94870.88;;;36.67;26.45
5550;BME280;2798;42.716;23.256;2023-07-13T11:45:41;94859.63;;;36.76;26.40
5550;BME280;2798;42.716;23.256;2023-07-13T11:48:21;94868.69;;;36.85;26.78
5550;BME280;2798;42.716;23.256;2023-07-13T11:51:05;94865.69;;;36.92;26.55
5550;BME280;2798;42.716;23.256;2023-07-13T11:53:44;94842.69;;;36.85;26.18
5550;BME280;2798;42.716;23.256;2023-07-13T11:56:10;94845.81;;;36.98;26.57
5550;BME280;2798;42.716;23.256;2023-07-13T11:58:36;94854.88;;;37.07;26.31
5550;BME280;2798;42.716;23.256;2023-07-13T12:01:03;94849.44;;;37.18;26.41
5550;BME280;2798;42.716;23.256;2023-07-13T12:03:32;94844.59;;;37.25;26.29
5550;BME280;2798;42.716;23.256;2023-07-13T12:06:05;94842.09;;;37.34;26.63
5550;BME280;2798;42.716;23.256;2023-07-13T12:08:31;94843.63;;;37.45;25.82
5550;BME280;2798;42.716;23.256;2023-07-13T12:11:04;94840.63;;;37.52;26.22
5550;BME280;2798;42.716;23.256;2023-07-13T12:13:35;94841.59;;;37.62;26.48
5550;BME280;2798;42.716;23.256;2023-07-13T12:16:01;94836.72;;;37.69;26.13
5550;BME280;2798;42.716;23.256;2023-07-13T12:18:30;94822.72;;;37.77;26.03
5550;BME280;2798;42.716;23.256;2023-07-13T12:20:58;94836.91;;;37.83;26.02
5550;BME280;2798;42.716;23.256;2023-07-13T12:25:53;94801.97;;;37.83;25.82
5550;BME280;2798;42.716;23.256;2023-07-13T12:28:40;94815.72;;;38.06;25.76
5550;BME280;2798;42.716;23.256;2023-07-13T12:31:37;94807.09;;;38.09;25.33
5550;BME280;2798;42.716;23.256;2023-07-13T12:34:11;94805.09;;;38.20;26.15
5550;BME280;2798;42.716;23.256;2023-07-13T12:36:40;94804.44;;;38.33;25.67
5550;BME280;2798;42.716;23.256;2023-07-13T12:41:50;94795.63;;;38.47;25.63
5550;BME280;2798;42.716;23.256;2023-07-13T12:44:18;94793.94;;;38.56;25.32
5550;BME280;2798;42.716;23.256;2023-07-13T12:46:57;94816.38;;;38.66;25.11
5550;BME280;2798;42.716;23.256;2023-07-13T12:49:29;94798.03;;;38.73;25.53
5550;BME280;2798;42.716;23.256;2023-07-13T12:51:57;94797.38;;;38.81;25.46
5550;BME280;2798;42.716;23.256;2023-07-13T12:54:24;94786.63;;;38.81;24.54
5550;BME280;2798;42.716;23.256;2023-07-13T12:56:51;94793.22;;;38.89;25.20
5550;BME280;2798;42.716;23.256;2023-07-13T12:59:20;94784.78;;;38.96;25.20
5550;BME280;2798;42.716;23.256;2023-07-13T13:01:48;94787.59;;;39.05;25.07
5550;BME280;2798;42.716;23.256;2023-07-13T13:04:15;94762.03;;;38.88;24.72
5550;BME280;2798;42.716;23.256;2023-07-13T13:06:41;94776.66;;;39.21;24.23
5550;BME280;2798;42.716;23.256;2023-07-13T13:09:13;94779.53;;;39.24;24.79
5550;BME280;2798;42.716;23.256;2023-07-13T13:11:39;94772.69;;;39.32;24.54
5550;BME280;2798;42.716;23.256;2023-07-13T13:14:05;94744.53;;;39.24;24.54
5550;BME280;2798;42.716;23.256;2023-07-13T13:16:33;94758.66;;;39.35;24.23
5550;BME280;2798;42.716;23.256;2023-07-13T13:19:10;94763.75;;;39.51;23.84
5550;BME280;2798;42.716;23.256;2023-07-13T13:21:38;94766.66;;;39.54;23.87
5550;BME280;2798;42.716;23.256;2023-07-13T13:24:11;94763.91;;;39.60;23.42
5550;BME280;2798;42.716;23.256;2023-07-13T13:26:36;94762.28;;;39.59;23.50
5550;BME280;2798;42.716;23.256;2023-07-13T13:29:18;94763.31;;;39.63;23.62
5550;BME280;2798;42.716;23.256;2023-07-13T13:31:44;94761.63;;;39.67;23.45
5550;BME280;2798;42.716;23.256;2023-07-13T13:34:14;94764.53;;;39.71;23.79
5550;BME280;2798;42.716;23.256;2023-07-13T13:36:41;94741.97;;;39.66;23.63
5550;BME280;2798;42.716;23.256;2023-07-13T13:41:47;94758.25;;;39.89;24.36
5550;BME280;2798;42.716;23.256;2023-07-13T13:44:17;94754.44;;;39.90;23.12
5550;BME280;2798;42.716;23.256;2023-07-13T13:46:45;94751.56;;;40.01;23.34
5550;BME280;2798;42.716;23.256;2023-07-13T13:49:18;94746.59;;;40.08;23.07
5550;BME280;2798;42.716;23.256;2023-07-13T13:51:44;94746.59;;;40.08;23.14
5550;BME280;2798;42.716;23.256;2023-07-13T13:54:14;94748.41;;;40.13;22.96
5550;BME280;2798;42.716;23.256;2023-07-13T13:56:45;94752.75;;;40.23;23.58
5550;BME280;2798;42.716;23.256;2023-07-13T13:59:11;94749.16;;;40.27;22.68
5550;BME280;2798;42.716;23.256;2023-07-13T14:01:38;94755.06;;;40.29;22.25
5550;BME280;2798;42.716;23.256;2023-07-13T14:04:05;94742.59;;;40.34;22.67
5550;BME280;2798;42.716;23.256;2023-07-13T14:06:32;94752.63;;;40.42;22.81